sensor_id;sensor_type;location;lat;lon;timestamp;P1;durP1;ratioP1;P2;durP2;ratioP2
73359;SDS011;63092;43.582;19.528;2023-06-14T00:00:58;14.80;;;7.47;;
73359;SDS011;63092;43.582;19.528;2023-06-14T00:03:24;12.00;;;7.70;;
73359;SDS011;63092;43.582;19.528;2023-06-14T00:05:51;10.45;;;7.25;;
73359;SDS011;63092;43.582;19.528;2023-06-14T00:08:16;15.05;;;7.82;;
73359;SDS011;63092;43.582;19.528;2023-06-14T00:10:43;13.40;;;8.10;;
73359;SDS011;63092;43.582;19.528;2023-06-14T00:13:09;11.55;;;8.20;;
73359;SDS011;63092;43.582;19.528;2023-06-14T00:15:36;12.10;;;8.68;;
73359;SDS011;63092;43.582;19.528;2023-06-14T00:18:02;10.75;;;8.18;;
73359;SDS011;63092;43.582;19.528;2023-06-14T00:20:30;10.93;;;8.80;;
73359;SDS011;63092;43.582;19.528;2023-06-14T00:22:58;13.07;;;8.60;;
73359;SDS011;63092;43.582;19.528;2023-06-14T00:25:27;13.55;;;8.32;;
73359;SDS011;63092;43.582;19.528;2023-06-14T00:27:53;13.70;;;8.02;;
73359;SDS011;63092;43.582;19.528;2023-06-14T00:30:20;16.40;;;8.10;;
73359;SDS011;63092;43.582;19.528;2023-06-14T00:32:46;18.90;;;8.23;;
73359;SDS011;63092;43.582;19.528;2023-06-14T00:35:12;16.58;;;8.13;;
73359;SDS011;63092;43.582;19.528;2023-06-14T00:37:38;14.43;;;8.43;;
73359;SDS011;63092;43.582;19.528;2023-06-14T00:40:05;13.10;;;8.73;;
73359;SDS011;63092;43.582;19.528;2023-06-14T00:42:32;13.90;;;7.97;;
73359;SDS011;63092;43.582;19.528;2023-06-14T00:44:58;18.30;;;8.77;;
73359;SDS011;63092;43.582;19.528;2023-06-14T00:47:24;13.32;;;7.95;;
73359;SDS011;63092;43.582;19.528;2023-06-14T00:49:52;18.90;;;8.32;;
73359;SDS011;63092;43.582;19.528;2023-06-14T00:52:20;14.75;;;8.10;;
73359;SDS011;63092;43.582;19.528;2023-06-14T00:54:47;13.65;;;8.10;;
73359;SDS011;63092;43.582;19.528;2023-06-14T00:57:13;11.05;;;8.15;;
73359;SDS011;63092;43.582;19.528;2023-06-14T00:59:46;13.77;;;8.43;;
73359;SDS011;63092;43.582;19.528;2023-06-14T01:02:13;10.82;;;7.50;;
73359;SDS011;63092;43.582;19.528;2023-06-14T01:04:43;16.30;;;8.30;;
73359;SDS011;63092;43.582;19.528;2023-06-14T01:07:20;12.18;;;8.15;;
73359;SDS011;63092;43.582;19.528;2023-06-14T01:12:50;14.77;;;8.95;;
73359;SDS011;63092;43.582;19.528;2023-06-14T01:15:25;13.75;;;7.75;;
73359;SDS011;63092;43.582;19.528;2023-06-14T01:17:54;12.93;;;7.72;;
73359;SDS011;63092;43.582;19.528;2023-06-14T01:20:22;11.02;;;7.63;;
73359;SDS011;63092;43.582;19.528;2023-06-14T01:22:54;12.43;;;7.50;;
73359;SDS011;63092;43.582;19.528;2023-06-14T01:25:21;10.95;;;8.10;;
73359;SDS011;63092;43.582;19.528;2023-06-14T01:28:00;13.60;;;8.13;;
73359;SDS011;63092;43.582;19.528;2023-06-14T01:30:28;11.68;;;8.40;;
73359;SDS011;63092;43.582;19.528;2023-06-14T01:32:55;13.38;;;8.30;;
73359;SDS011;63092;43.582;19.528;2023-06-14T01:35:23;15.25;;;8.95;;
73359;SDS011;63092;43.582;19.528;2023-06-14T01:37:49;11.98;;;7.95;;
73359;SDS011;63092;43.582;19.528;2023-06-14T01:40:15;13.70;;;8.20;;
73359;SDS011;63092;43.582;19.528;2023-06-14T01:42:43;13.35;;;8.60;;
73359;SDS011;63092;43.582;19.528;2023-06-14T01:45:11;14.35;;;8.40;;
73359;SDS011;63092;43.582;19.528;2023-06-14T01:47:37;12.35;;;8.60;;
73359;SDS011;63092;43.582;19.528;2023-06-14T01:50:03;14.23;;;8.68;;
73359;SDS011;63092;43.582;19.528;2023-06-14T01:52:30;16.63;;;9.30;;
73359;SDS011;63092;43.582;19.528;2023-06-14T01:54:57;15.57;;;9.18;;
73359;SDS011;63092;43.582;19.528;2023-06-14T01:57:23;16.80;;;8.65;;
73359;SDS011;63092;43.582;19.528;2023-06-14T01:59:51;18.13;;;8.70;;
73359;SDS011;63092;43.582;19.528;2023-06-14T02:02:17;25.10;;;11.30;;
73359;SDS011;63092;43.582;19.528;2023-06-14T02:04:43;19.85;;;10.40;;
73359;SDS011;63092;43.582;19.528;2023-06-14T02:07:12;21.90;;;10.57;;
73359;SDS011;63092;43.582;19.528;2023-06-14T02:09:39;19.08;;;10.60;;
73359;SDS011;63092;43.582;19.528;2023-06-14T02:12:05;17.90;;;10.32;;
73359;SDS011;63092;43.582;19.528;2023-06-14T02:14:31;16.73;;;9.90;;
73359;SDS011;63092;43.582;19.528;2023-06-14T02:16:58;18.27;;;9.20;;
73359;SDS011;63092;43.582;19.528;2023-06-14T02:19:26;15.75;;;9.65;;
73359;SDS011;63092;43.582;19.528;2023-06-14T02:21:52;15.93;;;9.65;;
73359;SDS011;63092;43.582;19.528;2023-06-14T02:24:17;19.77;;;11.27;;
73359;SDS011;63092;43.582;19.528;2023-06-14T02:26:43;15.32;;;9.23;;
73359;SDS011;63092;43.582;19.528;2023-06-14T02:29:09;12.73;;;9.48;;
73359;SDS011;63092;43.582;19.528;2023-06-14T02:31:37;11.10;;;9.15;;
73359;SDS011;63092;43.582;19.528;2023-06-14T02:34:03;15.15;;;9.25;;
73359;SDS011;63092;43.582;19.528;2023-06-14T02:36:29;11.38;;;8.77;;
73359;SDS011;63092;43.582;19.528;2023-06-14T02:38:55;15.50;;;10.52;;
73359;SDS011;63092;43.582;19.528;2023-06-14T02:41:24;16.00;;;10.77;;
73359;SDS011;63092;43.582;19.528;2023-06-14T02:43:51;14.95;;;9.93;;
73359;SDS011;63092;43.582;19.528;2023-06-14T02:46:17;17.85;;;10.43;;
73359;SDS011;63092;43.582;19.528;2023-06-14T02:48:43;14.77;;;11.07;;
73359;SDS011;63092;43.582;19.528;2023-06-14T02:51:09;17.83;;;10.93;;
73359;SDS011;63092;43.582;19.528;2023-06-14T02:53:37;18.08;;;11.75;;
73359;SDS011;63092;43.582;19.528;2023-06-14T02:56:03;25.35;;;10.93;;
73359;SDS011;63092;43.582;19.528;2023-06-14T02:58:29;20.67;;;10.73;;
73359;SDS011;63092;43.582;19.528;2023-06-14T03:00:55;23.42;;;10.85;;
73359;SDS011;63092;43.582;19.528;2023-06-14T03:03:22;20.13;;;11.70;;
73359;SDS011;63092;43.582;19.528;2023-06-14T03:05:49;18.73;;;11.02;;
73359;SDS011;63092;43.582;19.528;2023-06-14T03:08:16;26.38;;;10.60;;
73359;SDS011;63092;43.582;19.528;2023-06-14T03:10:44;17.15;;;9.95;;
73359;SDS011;63092;43.582;19.528;2023-06-14T03:13:11;14.57;;;9.73;;
73359;SDS011;63092;43.582;19.528;2023-06-14T03:15:37;16.90;;;9.85;;
73359;SDS011;63092;43.582;19.528;2023-06-14T03:18:07;16.13;;;10.13;;
73359;SDS011;63092;43.582;19.528;2023-06-14T03:20:34;15.10;;;11.15;;
73359;SDS011;63092;43.582;19.528;2023-06-14T03:23:01;19.67;;;10.35;;
73359;SDS011;63092;43.582;19.528;2023-06-14T03:25:27;18.25;;;10.30;;
73359;SDS011;63092;43.582;19.528;2023-06-14T03:27:56;12.52;;;9.93;;
73359;SDS011;63092;43.582;19.528;2023-06-14T03:30:22;14.35;;;9.43;;
73359;SDS011;63092;43.582;19.528;2023-06-14T03:32:49;16.65;;;9.82;;
73359;SDS011;63092;43.582;19.528;2023-06-14T03:35:17;14.45;;;9.90;;
73359;SDS011;63092;43.582;19.528;2023-06-14T03:37:46;15.68;;;10.27;;
73359;SDS011;63092;43.582;19.528;2023-06-14T03:40:12;16.50;;;10.23;;
73359;SDS011;63092;43.582;19.528;2023-06-14T03:42:40;18.45;;;10.35;;
73359;SDS011;63092;43.582;19.528;2023-06-14T03:45:06;15.40;;;10.13;;
73359;SDS011;63092;43.582;19.528;2023-06-14T03:47:32;14.35;;;10.95;;
73359;SDS011;63092;43.582;19.528;2023-06-14T03:49:59;12.82;;;9.55;;
73359;SDS011;63092;43.582;19.528;2023-06-14T03:52:26;15.45;;;9.60;;
73359;SDS011;63092;43.582;19.528;2023-06-14T03:54:52;14.05;;;9.45;;
73359;SDS011;63092;43.582;19.528;2023-06-14T03:57:18;12.88;;;9.05;;
73359;SDS011;63092;43.582;19.528;2023-06-14T03:59:45;14.50;;;10.02;;
73359;SDS011;63092;43.582;19.528;2023-06-14T04:02:12;15.32;;;10.20;;
73359;SDS011;63092;43.582;19.528;2023-06-14T04:04:40;16.33;;;10.43;;
73359;SDS011;63092;43.582;19.528;2023-06-14T04:09:39;24.67;;;11.38;;
73359;SDS011;63092;43.582;19.528;2023-06-14T04:12:05;19.27;;;10.30;;
73359;SDS011;63092;43.582;19.528;2023-06-14T04:14:33;20.15;;;10.25;;
73359;SDS011;63092;43.582;19.528;2023-06-14T04:16:59;17.10;;;11.27;;
73359;SDS011;63092;43.582;19.528;2023-06-14T04:19:25;15.82;;;10.02;;
73359;SDS011;63092;43.582;19.528;2023-06-14T04:21:51;15.88;;;10.65;;
73359;SDS011;63092;43.582;19.528;2023-06-14T04:24:17;19.38;;;10.60;;
73359;SDS011;63092;43.582;19.528;2023-06-14T04:26:43;13.15;;;10.20;;
73359;SDS011;63092;43.582;19.528;2023-06-14T04:29:11;14.18;;;9.63;;
73359;SDS011;63092;43.582;19.528;2023-06-14T04:31:41;17.38;;;10.45;;
73359;SDS011;63092;43.582;19.528;2023-06-14T04:34:11;17.05;;;11.10;;
73359;SDS011;63092;43.582;19.528;2023-06-14T04:36:41;18.45;;;11.10;;
73359;SDS011;63092;43.582;19.528;2023-06-14T04:39:17;16.58;;;9.93;;
73359;SDS011;63092;43.582;19.528;2023-06-14T04:41:43;15.40;;;10.13;;
73359;SDS011;63092;43.582;19.528;2023-06-14T04:44:09;12.10;;;9.20;;
73359;SDS011;63092;43.582;19.528;2023-06-14T04:46:36;13.43;;;9.65;;
73359;SDS011;63092;43.582;19.528;2023-06-14T04:49:14;13.02;;;9.80;;
73359;SDS011;63092;43.582;19.528;2023-06-14T04:51:44;13.77;;;9.68;;
73359;SDS011;63092;43.582;19.528;2023-06-14T04:54:12;18.20;;;9.95;;
73359;SDS011;63092;43.582;19.528;2023-06-14T04:56:43;15.52;;;11.35;;
73359;SDS011;63092;43.582;19.528;2023-06-14T05:01:40;13.38;;;9.90;;
73359;SDS011;63092;43.582;19.528;2023-06-14T05:04:06;15.23;;;9.77;;
73359;SDS011;63092;43.582;19.528;2023-06-14T05:06:32;16.48;;;11.32;;
73359;SDS011;63092;43.582;19.528;2023-06-14T05:08:58;17.23;;;12.02;;
73359;SDS011;63092;43.582;19.528;2023-06-14T05:11:23;17.05;;;12.82;;
73359;SDS011;63092;43.582;19.528;2023-06-14T05:13:49;12.30;;;10.30;;
73359;SDS011;63092;43.582;19.528;2023-06-14T05:16:16;13.93;;;10.48;;
73359;SDS011;63092;43.582;19.528;2023-06-14T05:18:44;12.70;;;10.85;;
73359;SDS011;63092;43.582;19.528;2023-06-14T05:21:11;13.18;;;9.93;;
73359;SDS011;63092;43.582;19.528;2023-06-14T05:23:36;12.43;;;10.15;;
73359;SDS011;63092;43.582;19.528;2023-06-14T05:26:02;12.13;;;9.30;;
73359;SDS011;63092;43.582;19.528;2023-06-14T05:28:29;15.07;;;10.80;;
73359;SDS011;63092;43.582;19.528;2023-06-14T05:30:56;12.77;;;9.95;;
73359;SDS011;63092;43.582;19.528;2023-06-14T05:33:23;12.70;;;9.52;;
73359;SDS011;63092;43.582;19.528;2023-06-14T05:35:48;13.15;;;9.13;;
73359;SDS011;63092;43.582;19.528;2023-06-14T05:38:15;12.55;;;9.48;;
73359;SDS011;63092;43.582;19.528;2023-06-14T05:40:40;13.18;;;9.45;;
73359;SDS011;63092;43.582;19.528;2023-06-14T05:43:06;13.77;;;9.25;;
73359;SDS011;63092;43.582;19.528;2023-06-14T05:45:32;11.68;;;9.70;;
73359;SDS011;63092;43.582;19.528;2023-06-14T05:47:58;11.52;;;9.50;;
73359;SDS011;63092;43.582;19.528;2023-06-14T05:50:24;11.73;;;9.35;;
73359;SDS011;63092;43.582;19.528;2023-06-14T05:52:49;12.07;;;9.48;;
73359;SDS011;63092;43.582;19.528;2023-06-14T05:55:16;15.50;;;9.82;;
73359;SDS011;63092;43.582;19.528;2023-06-14T05:57:42;12.05;;;9.40;;
73359;SDS011;63092;43.582;19.528;2023-06-14T06:00:08;12.80;;;9.27;;
73359;SDS011;63092;43.582;19.528;2023-06-14T06:02:40;15.85;;;11.95;;
73359;SDS011;63092;43.582;19.528;2023-06-14T06:05:08;14.18;;;10.75;;
73359;SDS011;63092;43.582;19.528;2023-06-14T06:07:35;9.90;;;8.05;;
73359;SDS011;63092;43.582;19.528;2023-06-14T06:10:01;12.90;;;9.48;;
73359;SDS011;63092;43.582;19.528;2023-06-14T06:12:27;10.95;;;8.25;;
73359;SDS011;63092;43.582;19.528;2023-06-14T06:14:53;11.88;;;8.80;;
73359;SDS011;63092;43.582;19.528;2023-06-14T06:17:18;12.90;;;9.80;;
73359;SDS011;63092;43.582;19.528;2023-06-14T06:19:44;12.88;;;9.32;;
73359;SDS011;63092;43.582;19.528;2023-06-14T06:22:10;10.10;;;8.50;;
73359;SDS011;63092;43.582;19.528;2023-06-14T06:24:36;11.50;;;10.02;;
73359;SDS011;63092;43.582;19.528;2023-06-14T06:27:02;14.13;;;10.52;;
73359;SDS011;63092;43.582;19.528;2023-06-14T06:29:27;14.15;;;10.20;;
73359;SDS011;63092;43.582;19.528;2023-06-14T06:31:53;12.40;;;9.32;;
73359;SDS011;63092;43.582;19.528;2023-06-14T06:34:21;13.90;;;8.93;;
73359;SDS011;63092;43.582;19.528;2023-06-14T06:36:47;15.50;;;9.65;;
73359;SDS011;63092;43.582;19.528;2023-06-14T06:39:13;15.38;;;10.45;;
73359;SDS011;63092;43.582;19.528;2023-06-14T06:41:40;13.73;;;9.07;;
73359;SDS011;63092;43.582;19.528;2023-06-14T06:44:06;13.50;;;8.70;;
73359;SDS011;63092;43.582;19.528;2023-06-14T06:46:32;10.88;;;8.43;;
73359;SDS011;63092;43.582;19.528;2023-06-14T06:48:59;12.07;;;9.10;;
73359;SDS011;63092;43.582;19.528;2023-06-14T06:51:25;12.70;;;8.43;;
73359;SDS011;63092;43.582;19.528;2023-06-14T06:53:54;13.75;;;9.77;;
73359;SDS011;63092;43.582;19.528;2023-06-14T06:56:20;11.15;;;8.95;;
73359;SDS011;63092;43.582;19.528;2023-06-14T06:58:48;11.10;;;9.05;;
73359;SDS011;63092;43.582;19.528;2023-06-14T07:01:15;11.60;;;8.65;;
73359;SDS011;63092;43.582;19.528;2023-06-14T07:03:41;10.40;;;8.63;;
73359;SDS011;63092;43.582;19.528;2023-06-14T07:06:07;12.30;;;8.75;;
73359;SDS011;63092;43.582;19.528;2023-06-14T07:08:33;11.90;;;8.73;;
73359;SDS011;63092;43.582;19.528;2023-06-14T07:10:59;9.60;;;7.60;;
73359;SDS011;63092;43.582;19.528;2023-06-14T07:13:25;10.25;;;8.27;;
73359;SDS011;63092;43.582;19.528;2023-06-14T07:15:53;11.05;;;8.02;;
73359;SDS011;63092;43.582;19.528;2023-06-14T07:18:20;10.00;;;8.02;;
73359;SDS011;63092;43.582;19.528;2023-06-14T07:20:47;10.82;;;8.63;;
73359;SDS011;63092;43.582;19.528;2023-06-14T07:23:13;9.82;;;8.45;;
73359;SDS011;63092;43.582;19.528;2023-06-14T07:25:38;10.00;;;8.20;;
73359;SDS011;63092;43.582;19.528;2023-06-14T07:28:04;10.90;;;8.10;;
73359;SDS011;63092;43.582;19.528;2023-06-14T07:30:30;9.77;;;8.15;;
73359;SDS011;63092;43.582;19.528;2023-06-14T07:32:56;9.63;;;7.72;;
73359;SDS011;63092;43.582;19.528;2023-06-14T07:35:22;9.02;;;7.68;;
73359;SDS011;63092;43.582;19.528;2023-06-14T07:37:47;9.45;;;7.97;;
73359;SDS011;63092;43.582;19.528;2023-06-14T07:40:14;7.80;;;7.00;;
73359;SDS011;63092;43.582;19.528;2023-06-14T07:42:40;8.57;;;7.68;;
73359;SDS011;63092;43.582;19.528;2023-06-14T07:45:07;8.30;;;7.40;;
73359;SDS011;63092;43.582;19.528;2023-06-14T07:47:33;9.13;;;8.05;;
73359;SDS011;63092;43.582;19.528;2023-06-14T07:49:59;9.98;;;7.65;;
73359;SDS011;63092;43.582;19.528;2023-06-14T07:52:25;10.15;;;8.38;;
73359;SDS011;63092;43.582;19.528;2023-06-14T07:54:51;9.05;;;7.60;;
73359;SDS011;63092;43.582;19.528;2023-06-14T07:57:16;17.75;;;15.80;;
73359;SDS011;63092;43.582;19.528;2023-06-14T07:59:45;10.07;;;7.75;;
73359;SDS011;63092;43.582;19.528;2023-06-14T08:02:11;14.00;;;7.88;;
73359;SDS011;63092;43.582;19.528;2023-06-14T08:04:36;11.38;;;7.32;;
73359;SDS011;63092;43.582;19.528;2023-06-14T08:07:03;9.10;;;7.68;;
73359;SDS011;63092;43.582;19.528;2023-06-14T08:09:29;11.68;;;7.30;;
73359;SDS011;63092;43.582;19.528;2023-06-14T08:11:55;10.15;;;6.97;;
73359;SDS011;63092;43.582;19.528;2023-06-14T08:14:21;10.20;;;7.38;;
73359;SDS011;63092;43.582;19.528;2023-06-14T08:16:47;8.05;;;7.03;;
73359;SDS011;63092;43.582;19.528;2023-06-14T08:19:13;9.15;;;7.05;;
73359;SDS011;63092;43.582;19.528;2023-06-14T08:21:41;10.85;;;6.93;;
73359;SDS011;63092;43.582;19.528;2023-06-14T08:24:08;8.07;;;6.53;;
73359;SDS011;63092;43.582;19.528;2023-06-14T08:26:37;9.57;;;6.93;;
73359;SDS011;63092;43.582;19.528;2023-06-14T08:29:04;10.70;;;6.80;;
73359;SDS011;63092;43.582;19.528;2023-06-14T08:31:32;8.63;;;6.50;;
73359;SDS011;63092;43.582;19.528;2023-06-14T08:33:58;9.48;;;6.75;;
73359;SDS011;63092;43.582;19.528;2023-06-14T08:36:24;7.60;;;6.22;;
73359;SDS011;63092;43.582;19.528;2023-06-14T08:38:50;9.95;;;8.20;;
73359;SDS011;63092;43.582;19.528;2023-06-14T08:41:21;7.93;;;6.47;;
73359;SDS011;63092;43.582;19.528;2023-06-14T08:43:51;7.30;;;5.82;;
73359;SDS011;63092;43.582;19.528;2023-06-14T08:46:17;8.80;;;6.50;;
73359;SDS011;63092;43.582;19.528;2023-06-14T08:48:51;6.70;;;6.00;;
73359;SDS011;63092;43.582;19.528;2023-06-14T08:51:20;7.50;;;5.82;;
73359;SDS011;63092;43.582;19.528;2023-06-14T08:53:51;7.38;;;6.45;;
73359;SDS011;63092;43.582;19.528;2023-06-14T08:56:22;8.43;;;6.15;;
73359;SDS011;63092;43.582;19.528;2023-06-14T08:58:50;10.30;;;5.38;;
73359;SDS011;63092;43.582;19.528;2023-06-14T09:01:16;7.60;;;5.90;;
73359;SDS011;63092;43.582;19.528;2023-06-14T09:03:42;8.63;;;6.00;;
73359;SDS011;63092;43.582;19.528;2023-06-14T09:06:09;7.38;;;5.93;;
73359;SDS011;63092;43.582;19.528;2023-06-14T09:08:47;6.97;;;5.97;;
73359;SDS011;63092;43.582;19.528;2023-06-14T09:11:14;8.38;;;5.60;;
73359;SDS011;63092;43.582;19.528;2023-06-14T09:13:41;8.43;;;6.10;;
73359;SDS011;63092;43.582;19.528;2023-06-14T09:16:08;5.85;;;4.82;;
73359;SDS011;63092;43.582;19.528;2023-06-14T09:18:37;6.32;;;5.10;;
73359;SDS011;63092;43.582;19.528;2023-06-14T09:21:07;6.40;;;4.80;;
73359;SDS011;63092;43.582;19.528;2023-06-14T09:26:10;7.07;;;4.90;;
73359;SDS011;63092;43.582;19.528;2023-06-14T09:28:43;7.95;;;4.97;;
73359;SDS011;63092;43.582;19.528;2023-06-14T09:31:10;7.75;;;5.30;;
73359;SDS011;63092;43.582;19.528;2023-06-14T09:33:37;6.22;;;5.00;;
73359;SDS011;63092;43.582;19.528;2023-06-14T09:36:04;8.32;;;5.05;;
73359;SDS011;63092;43.582;19.528;2023-06-14T09:38:34;7.07;;;5.05;;
73359;SDS011;63092;43.582;19.528;2023-06-14T09:41:00;6.10;;;4.68;;
73359;SDS011;63092;43.582;19.528;2023-06-14T09:43:29;7.90;;;5.63;;
73359;SDS011;63092;43.582;19.528;2023-06-14T09:45:54;7.35;;;5.45;;
73359;SDS011;63092;43.582;19.528;2023-06-14T09:48:21;6.50;;;5.07;;
73359;SDS011;63092;43.582;19.528;2023-06-14T09:50:47;6.75;;;4.43;;
73359;SDS011;63092;43.582;19.528;2023-06-14T09:53:15;5.70;;;4.20;;
73359;SDS011;63092;43.582;19.528;2023-06-14T09:55:43;7.25;;;4.60;;
73359;SDS011;63092;43.582;19.528;2023-06-14T09:58:10;13.65;;;6.95;;
73359;SDS011;63092;43.582;19.528;2023-06-14T10:00:37;6.70;;;4.85;;
73359;SDS011;63092;43.582;19.528;2023-06-14T10:03:06;5.75;;;4.85;;
73359;SDS011;63092;43.582;19.528;2023-06-14T10:05:34;6.63;;;4.85;;
73359;SDS011;63092;43.582;19.528;2023-06-14T10:08:08;6.05;;;4.95;;
73359;SDS011;63092;43.582;19.528;2023-06-14T10:10:34;7.25;;;4.38;;
73359;SDS011;63092;43.582;19.528;2023-06-14T10:13:01;6.82;;;4.20;;
73359;SDS011;63092;43.582;19.528;2023-06-14T10:21:26;6.43;;;4.20;;
73359;SDS011;63092;43.582;19.528;2023-06-14T10:23:54;6.05;;;4.32;;
73359;SDS011;63092;43.582;19.528;2023-06-14T10:26:25;5.40;;;4.28;;
73359;SDS011;63092;43.582;19.528;2023-06-14T10:31:43;5.22;;;4.10;;
73359;SDS011;63092;43.582;19.528;2023-06-14T10:34:10;6.38;;;4.95;;
73359;SDS011;63092;43.582;19.528;2023-06-14T10:36:38;6.10;;;4.00;;
73359;SDS011;63092;43.582;19.528;2023-06-14T10:39:08;5.35;;;4.10;;
73359;SDS011;63092;43.582;19.528;2023-06-14T10:41:54;6.45;;;4.45;;
73359;SDS011;63092;43.582;19.528;2023-06-14T10:46:47;5.28;;;4.13;;
73359;SDS011;63092;43.582;19.528;2023-06-14T10:49:18;6.50;;;4.40;;
73359;SDS011;63092;43.582;19.528;2023-06-14T10:51:51;5.32;;;4.32;;
73359;SDS011;63092;43.582;19.528;2023-06-14T10:54:21;7.00;;;5.03;;
73359;SDS011;63092;43.582;19.528;2023-06-14T10:59:14;6.60;;;4.57;;
73359;SDS011;63092;43.582;19.528;2023-06-14T11:13:05;6.18;;;4.30;;
73359;SDS011;63092;43.582;19.528;2023-06-14T11:18:04;5.88;;;4.20;;
73359;SDS011;63092;43.582;19.528;2023-06-14T11:20:32;12.52;;;4.20;;
73359;SDS011;63092;43.582;19.528;2023-06-14T11:23:00;7.30;;;4.90;;
73359;SDS011;63092;43.582;19.528;2023-06-14T11:25:27;5.60;;;4.10;;
73359;SDS011;63092;43.582;19.528;2023-06-14T11:27:53;7.45;;;4.43;;
73359;SDS011;63092;43.582;19.528;2023-06-14T11:30:19;6.88;;;4.75;;
73359;SDS011;63092;43.582;19.528;2023-06-14T11:32:46;6.22;;;4.90;;
73359;SDS011;63092;43.582;19.528;2023-06-14T11:35:17;6.93;;;4.82;;
73359;SDS011;63092;43.582;19.528;2023-06-14T11:37:43;8.77;;;4.78;;
73359;SDS011;63092;43.582;19.528;2023-06-14T11:40:10;13.05;;;8.68;;
73359;SDS011;63092;43.582;19.528;2023-06-14T11:42:37;10.68;;;6.03;;
73359;SDS011;63092;43.582;19.528;2023-06-14T11:45:09;5.55;;;4.22;;
73359;SDS011;63092;43.582;19.528;2023-06-14T11:47:36;5.07;;;2.60;;
73359;SDS011;63092;43.582;19.528;2023-06-14T11:50:06;6.82;;;2.67;;
73359;SDS011;63092;43.582;19.528;2023-06-14T11:52:38;3.40;;;2.10;;
73359;SDS011;63092;43.582;19.528;2023-06-14T11:55:04;7.20;;;2.70;;
73359;SDS011;63092;43.582;19.528;2023-06-14T11:57:35;4.50;;;2.28;;
73359;SDS011;63092;43.582;19.528;2023-06-14T12:00:06;6.07;;;2.30;;
73359;SDS011;63092;43.582;19.528;2023-06-14T12:02:38;5.07;;;2.30;;
73359;SDS011;63092;43.582;19.528;2023-06-14T12:05:05;8.80;;;2.53;;
73359;SDS011;63092;43.582;19.528;2023-06-14T12:07:37;5.10;;;2.35;;
73359;SDS011;63092;43.582;19.528;2023-06-14T12:10:07;5.10;;;2.30;;
73359;SDS011;63092;43.582;19.528;2023-06-14T12:12:39;4.20;;;2.38;;
73359;SDS011;63092;43.582;19.528;2023-06-14T12:15:08;7.65;;;2.33;;
73359;SDS011;63092;43.582;19.528;2023-06-14T12:17:37;4.65;;;2.75;;
73359;SDS011;63092;43.582;19.528;2023-06-14T12:20:08;7.75;;;2.28;;
73359;SDS011;63092;43.582;19.528;2023-06-14T12:22:50;4.43;;;2.35;;
73359;SDS011;63092;43.582;19.528;2023-06-14T12:25:32;5.35;;;2.55;;
73359;SDS011;63092;43.582;19.528;2023-06-14T12:28:00;24.80;;;16.63;;
73359;SDS011;63092;43.582;19.528;2023-06-14T12:30:33;7.05;;;3.17;;
73359;SDS011;63092;43.582;19.528;2023-06-14T12:32:59;5.30;;;3.15;;
73359;SDS011;63092;43.582;19.528;2023-06-14T12:35:25;6.47;;;3.60;;
73359;SDS011;63092;43.582;19.528;2023-06-14T12:37:51;8.70;;;5.35;;
73359;SDS011;63092;43.582;19.528;2023-06-14T12:40:17;6.38;;;3.45;;
73359;SDS011;63092;43.582;19.528;2023-06-14T12:42:44;4.38;;;2.45;;
73359;SDS011;63092;43.582;19.528;2023-06-14T12:45:13;5.78;;;3.05;;
73359;SDS011;63092;43.582;19.528;2023-06-14T12:47:40;5.00;;;2.67;;
73359;SDS011;63092;43.582;19.528;2023-06-14T12:50:06;4.78;;;2.90;;
73359;SDS011;63092;43.582;19.528;2023-06-14T12:52:32;5.53;;;3.03;;
73359;SDS011;63092;43.582;19.528;2023-06-14T12:55:04;6.85;;;3.30;;
73359;SDS011;63092;43.582;19.528;2023-06-14T12:57:30;4.55;;;2.60;;
73359;SDS011;63092;43.582;19.528;2023-06-14T12:59:56;5.18;;;2.47;;
73359;SDS011;63092;43.582;19.528;2023-06-14T13:02:21;5.93;;;2.25;;
73359;SDS011;63092;43.582;19.528;2023-06-14T13:04:49;4.75;;;2.40;;
73359;SDS011;63092;43.582;19.528;2023-06-14T13:07:15;5.75;;;2.35;;
73359;SDS011;63092;43.582;19.528;2023-06-14T13:09:42;5.05;;;2.55;;
73359;SDS011;63092;43.582;19.528;2023-06-14T13:12:11;4.72;;;3.08;;
73359;SDS011;63092;43.582;19.528;2023-06-14T13:17:04;6.57;;;3.92;;
73359;SDS011;63092;43.582;19.528;2023-06-14T13:19:30;4.95;;;2.85;;
73359;SDS011;63092;43.582;19.528;2023-06-14T13:21:56;7.18;;;3.08;;
73359;SDS011;63092;43.582;19.528;2023-06-14T13:24:22;5.53;;;2.90;;
73359;SDS011;63092;43.582;19.528;2023-06-14T13:26:47;5.60;;;3.15;;
73359;SDS011;63092;43.582;19.528;2023-06-14T13:29:13;7.57;;;4.22;;
73359;SDS011;63092;43.582;19.528;2023-06-14T13:31:39;5.60;;;3.30;;
73359;SDS011;63092;43.582;19.528;2023-06-14T13:34:05;4.65;;;2.50;;
73359;SDS011;63092;43.582;19.528;2023-06-14T13:36:31;5.07;;;3.13;;
73359;SDS011;63092;43.582;19.528;2023-06-14T13:38:57;6.82;;;2.65;;
73359;SDS011;63092;43.582;19.528;2023-06-14T13:41:25;5.38;;;3.08;;
73359;SDS011;63092;43.582;19.528;2023-06-14T13:43:56;5.82;;;2.80;;
73359;SDS011;63092;43.582;19.528;2023-06-14T13:46:23;5.70;;;3.00;;
73359;SDS011;63092;43.582;19.528;2023-06-14T13:48:49;8.38;;;4.85;;
73359;SDS011;63092;43.582;19.528;2023-06-14T13:51:15;8.05;;;4.25;;
73359;SDS011;63092;43.582;19.528;2023-06-14T13:53:45;5.97;;;3.97;;
73359;SDS011;63092;43.582;19.528;2023-06-14T13:56:12;6.85;;;4.18;;
73359;SDS011;63092;43.582;19.528;2023-06-14T13:58:38;8.00;;;5.28;;
73359;SDS011;63092;43.582;19.528;2023-06-14T14:01:04;7.82;;;4.13;;
73359;SDS011;63092;43.582;19.528;2023-06-14T14:03:30;5.78;;;3.53;;
73359;SDS011;63092;43.582;19.528;2023-06-14T14:05:56;5.97;;;4.07;;
73359;SDS011;63092;43.582;19.528;2023-06-14T14:08:21;7.03;;;5.07;;
73359;SDS011;63092;43.582;19.528;2023-06-14T14:10:47;5.18;;;3.35;;
73359;SDS011;63092;43.582;19.528;2023-06-14T14:13:13;5.03;;;3.03;;
73359;SDS011;63092;43.582;19.528;2023-06-14T14:15:39;4.35;;;2.80;;
73359;SDS011;63092;43.582;19.528;2023-06-14T14:18:05;5.68;;;3.28;;
73359;SDS011;63092;43.582;19.528;2023-06-14T14:20:30;5.97;;;3.10;;
73359;SDS011;63092;43.582;19.528;2023-06-14T14:22:57;5.88;;;3.25;;
73359;SDS011;63092;43.582;19.528;2023-06-14T14:25:23;5.80;;;2.92;;
73359;SDS011;63092;43.582;19.528;2023-06-14T14:27:49;6.30;;;2.97;;
73359;SDS011;63092;43.582;19.528;2023-06-14T14:30:15;4.65;;;2.78;;
73359;SDS011;63092;43.582;19.528;2023-06-14T14:32:41;5.72;;;2.58;;
73359;SDS011;63092;43.582;19.528;2023-06-14T14:35:08;5.45;;;3.40;;
73359;SDS011;63092;43.582;19.528;2023-06-14T14:37:34;4.90;;;3.13;;
73359;SDS011;63092;43.582;19.528;2023-06-14T14:39:59;5.40;;;3.13;;
73359;SDS011;63092;43.582;19.528;2023-06-14T14:42:25;4.47;;;2.95;;
73359;SDS011;63092;43.582;19.528;2023-06-14T14:44:52;7.85;;;4.38;;
73359;SDS011;63092;43.582;19.528;2023-06-14T14:47:17;4.50;;;2.80;;
73359;SDS011;63092;43.582;19.528;2023-06-14T14:49:43;6.45;;;3.70;;
73359;SDS011;63092;43.582;19.528;2023-06-14T14:52:09;5.90;;;3.50;;
73359;SDS011;63092;43.582;19.528;2023-06-14T14:54:35;9.13;;;5.00;;
73359;SDS011;63092;43.582;19.528;2023-06-14T14:57:01;5.68;;;3.30;;
73359;SDS011;63092;43.582;19.528;2023-06-14T14:59:27;6.00;;;3.15;;
73359;SDS011;63092;43.582;19.528;2023-06-14T15:01:52;6.85;;;4.03;;
73359;SDS011;63092;43.582;19.528;2023-06-14T15:04:18;5.32;;;3.15;;
73359;SDS011;63092;43.582;19.528;2023-06-14T15:06:44;5.35;;;3.42;;